WXM80 ListenWXM80 Stop

You find our weather info also at:

UK Metoffice

WeatherCloud

Weather Underground

Northeastern Weather Network

AWEKAS

Citizen Weather Observer Program (CWOP)

HAMweather, WeatherForYou, PWS Weather


Weather Underground History page Text

Daily Summary for October 21, 2016 Units:  English    Metric   Both
« Previous Day
Next Day »
Daily Weekly Monthly Yearly Custom
  High: Low: Average:
Temperature: 76.3 °F 64.0 °F 69 °F
Dew Point: 70.8 °F 62.5 °F 66.8 °F
Humidity: 98 % 78 % 93 %
Wind Speed: 10.9 mph 0.0 mph 1.8 mph
Wind Gust: 19.6 mph - -
Wind:- - South
Pressure: 29.95 in 29.36 in -
Precipitation: 0.02 in    
Historical Graphs
 
 
Tabular Data for October 21, 2016
Time Temperature Dew Point Pressure Wind Wind Speed Wind Gust Humidity Rainfall Rate (Hourly)
00:05 64.4 °F 63.2 °F 29.95 in Calm   1.0 mph 96 % 0.00 in
00:10 64.3 °F 63.1 °F 29.95 in Calm     96 % 0.00 in
00:15 64.3 °F 63.1 °F 29.95 in Calm   1.0 mph 96 % 0.00 in
00:20 64.3 °F 63.1 °F 29.95 in Calm     96 % 0.00 in
00:25 64.3 °F 63.1 °F 29.94 in Calm     96 % 0.00 in
00:30 64.3 °F 63.1 °F 29.94 in Calm     96 % 0.00 in
00:35 64.3 °F 63.1 °F 29.94 in Calm     96 % 0.00 in
00:40 64.3 °F 63.1 °F 29.94 in Calm     96 % 0.00 in
00:50 64.3 °F 63.1 °F 29.93 in Calm     96 % 0.00 in
00:55 64.3 °F 63.1 °F 29.93 in Calm     96 % 0.00 in
01:05 64.3 °F 63.1 °F 29.92 in Calm     96 % 0.00 in
01:10 64.3 °F 63.1 °F 29.92 in Calm     96 % 0.00 in
01:15 64.3 °F 63.1 °F 29.92 in Calm     96 % 0.00 in
01:20 64.3 °F 63.1 °F 29.92 in Calm     96 % 0.00 in
01:25 64.3 °F 63.1 °F 29.91 in Calm     96 % 0.00 in
01:30 64.3 °F 63.1 °F 29.91 in Calm     96 % 0.00 in
01:46 64.3 °F 63.1 °F 29.91 in Calm     96 % 0.00 in
01:48 64.3 °F 63.1 °F 29.90 in Calm     96 % 0.00 in
01:52 64.3 °F 63.1 °F 29.90 in Calm     96 % 0.00 in
01:56 64.3 °F 63.1 °F 29.90 in Calm     96 % 0.00 in
01:57 64.3 °F 63.1 °F 29.90 in Calm     96 % 0.00 in
02:02 64.3 °F 63.1 °F 29.90 in Calm     96 % 0.00 in
02:03 64.3 °F 63.1 °F 29.90 in Calm     96 % 0.00 in
02:04 64.3 °F 63.1 °F 29.90 in Calm     96 % 0.00 in
02:17 64.3 °F 63.1 °F 29.89 in Calm     96 % 0.00 in
02:19 64.2 °F 63.0 °F 29.89 in Calm     96 % 0.00 in
02:22 64.2 °F 63.0 °F 29.89 in Calm     96 % 0.00 in
02:27 64.2 °F 63.0 °F 29.89 in Calm     96 % 0.00 in
02:29 64.2 °F 63.0 °F 29.89 in Calm     96 % 0.00 in
02:34 64.2 °F 63.0 °F 29.88 in Calm     96 % 0.00 in
02:37 64.2 °F 63.0 °F 29.88 in Calm     96 % 0.00 in
02:41 64.2 °F 63.0 °F 29.88 in SE 0.1 mph 1.0 mph 96 % 0.00 in
02:46 64.2 °F 63.0 °F 29.88 in SE 0.2 mph 1.2 mph 96 % 0.00 in
02:49 64.3 °F 63.1 °F 29.88 in Calm   2.3 mph 96 % 0.00 in
02:52 64.4 °F 63.5 °F 29.87 in SE 0.1 mph   97 % 0.00 in
02:57 64.6 °F 63.7 °F 29.87 in SE 0.3 mph 1.0 mph 97 % 0.00 in
02:58 64.7 °F 63.8 °F 29.87 in Calm   1.2 mph 97 % 0.00 in
02:59 64.7 °F 63.8 °F 29.87 in Calm   1.2 mph 97 % 0.00 in
03:02 64.9 °F 64.0 °F 29.87 in SE 0.2 mph 1.2 mph 97 % 0.00 in
03:07 65.2 °F 64.3 °F 29.87 in SE 0.2 mph   97 % 0.00 in
03:12 65.3 °F 64.4 °F 29.87 in Calm     97 % 0.00 in
03:16 65.3 °F 64.4 °F 29.86 in Calm     97 % 0.00 in
03:21 65.3 °F 64.4 °F 29.86 in Calm     97 % 0.00 in
03:23 65.3 °F 64.4 °F 29.86 in Calm     97 % 0.00 in
03:28 65.4 °F 64.5 °F 29.86 in Calm     97 % 0.00 in
03:30 65.4 °F 64.5 °F 29.86 in Calm     97 % 0.00 in
03:33 65.4 °F 64.5 °F 29.86 in Calm     97 % 0.00 in
03:35 65.4 °F 64.5 °F 29.86 in Calm     97 % 0.00 in
03:38 65.4 °F 64.5 °F 29.85 in Calm   1.2 mph 97 % 0.00 in
03:43 65.5 °F 64.6 °F 29.86 in Calm     97 % 0.00 in
03:44 65.5 °F 64.6 °F 29.85 in Calm     97 % 0.00 in
03:49 65.5 °F 64.6 °F 29.85 in SE 0.3 mph 1.2 mph 97 % 0.00 in
03:50 65.6 °F 64.7 °F 29.85 in SE 0.8 mph 2.3 mph 97 % 0.00 in
03:54 65.8 °F 64.9 °F 29.85 in Calm   1.2 mph 97 % 0.00 in
03:55 65.8 °F 65.2 °F 29.85 in SE 0.2 mph 1.0 mph 98 % 0.00 in
03:57 65.9 °F 65.3 °F 29.85 in SE 0.7 mph 1.2 mph 98 % 0.00 in
04:01 66.0 °F 65.4 °F 29.85 in SE 1.1 mph 3.0 mph 98 % 0.00 in
04:03 66.0 °F 65.4 °F 29.85 in West 0.8 mph 3.5 mph 98 % 0.00 in
04:06 66.2 °F 65.6 °F 29.85 in West 0.3 mph 1.2 mph 98 % 0.00 in
04:09 66.4 °F 65.8 °F 29.85 in WSW 1.4 mph 4.6 mph 98 % 0.00 in
04:12 66.5 °F 65.9 °F 29.84 in SW 0.4 mph 2.3 mph 98 % 0.00 in
04:13 66.6 °F 66.0 °F 29.85 in SSW 1.0 mph 3.5 mph 98 % 0.00 in
04:15 66.8 °F 66.2 °F 29.85 in Calm   2.3 mph 98 % 0.00 in
04:20 66.9 °F 66.3 °F 29.85 in SW 0.4 mph 1.2 mph 98 % 0.00 in
04:25 67.1 °F 66.5 °F 29.84 in SE 0.5 mph 2.0 mph 98 % 0.00 in
04:27 67.2 °F 66.6 °F 29.84 in SE 0.2 mph 2.3 mph 98 % 0.00 in
04:31 67.2 °F 66.6 °F 29.84 in SE 0.7 mph 5.0 mph 98 % 0.00 in
04:33 67.3 °F 66.7 °F 29.84 in SE 1.4 mph 4.6 mph 98 % 0.00 in
04:36 67.3 °F 66.7 °F 29.84 in SE 1.2 mph 3.5 mph 98 % 0.00 in
04:41 67.4 °F 66.8 °F 29.83 in SE 1.4 mph 3.5 mph 98 % 0.00 in
04:47 67.4 °F 66.8 °F 29.84 in Calm     98 % 0.00 in
04:48 67.4 °F 66.8 °F 29.84 in SSE 0.4 mph 1.2 mph 98 % 0.00 in
04:54 67.3 °F 66.7 °F 29.84 in SSE 0.9 mph 3.0 mph 98 % 0.00 in
04:55 67.3 °F 66.7 °F 29.84 in SSE 1.6 mph 3.5 mph 98 % 0.00 in
04:59 67.3 °F 66.7 °F 29.83 in Calm     98 % 0.00 in
05:04 67.3 °F 66.7 °F 29.83 in Calm     98 % 0.00 in
05:05 67.3 °F 66.7 °F 29.83 in Calm     98 % 0.00 in
05:07 67.3 °F 66.7 °F 29.83 in SSE 3.3 mph 4.6 mph 98 % 0.00 in
05:12 67.2 °F 66.6 °F 29.83 in Calm     98 % 0.00 in
05:16 67.2 °F 66.3 °F 29.83 in Calm     97 % 0.00 in
05:19 67.2 °F 66.3 °F 29.83 in Calm   1.2 mph 97 % 0.00 in
05:24 67.1 °F 66.2 °F 29.83 in Calm     97 % 0.00 in
05:27 67.1 °F 66.2 °F 29.83 in Calm   3.5 mph 97 % 0.00 in
05:30 67.0 °F 66.1 °F 29.83 in Calm   1.2 mph 97 % 0.00 in
05:32 67.0 °F 66.1 °F 29.83 in Calm     97 % 0.00 in
05:35 66.9 °F 66.0 °F 29.83 in Calm     97 % 0.00 in
05:36 66.9 °F 66.0 °F 29.83 in Calm     97 % 0.00 in
05:39 66.9 °F 66.0 °F 29.83 in Calm   1.0 mph 97 % 0.00 in
05:40 66.9 °F 66.0 °F 29.83 in Calm   1.2 mph 97 % 0.00 in
05:41 66.9 °F 66.0 °F 29.83 in Calm     97 % 0.00 in
05:42 66.9 °F 66.0 °F 29.83 in Calm     97 % 0.00 in
05:44 66.8 °F 65.9 °F 29.83 in Calm     97 % 0.00 in
05:46 66.8 °F 65.9 °F 29.82 in Calm     97 % 0.00 in
05:48 66.8 °F 65.9 °F 29.82 in Calm     97 % 0.00 in
05:50 66.8 °F 65.9 °F 29.83 in Calm     97 % 0.00 in
05:55 66.7 °F 65.8 °F 29.82 in Calm     97 % 0.00 in
05:56 66.7 °F 65.8 °F 29.82 in Calm     97 % 0.00 in
06:02 66.6 °F 65.7 °F 29.82 in Calm     97 % 0.00 in
06:07 66.6 °F 65.7 °F 29.82 in Calm     97 % 0.00 in
06:09 66.6 °F 65.7 °F 29.82 in Calm     97 % 0.00 in
06:15 66.5 °F 65.6 °F 29.81 in Calm     97 % 0.00 in
06:23 66.5 °F 65.6 °F 29.81 in Calm     97 % 0.00 in
06:26 66.5 °F 65.6 °F 29.81 in Calm     97 % 0.00 in
06:27 66.5 °F 65.6 °F 29.81 in Calm     97 % 0.00 in
06:28 66.5 °F 65.6 °F 29.81 in Calm     97 % 0.00 in
06:32 66.4 °F 65.5 °F 29.81 in Calm     97 % 0.00 in
06:34 66.5 °F 65.6 °F 29.81 in Calm     97 % 0.00 in
06:35 66.4 °F 65.5 °F 29.80 in Calm     97 % 0.00 in
06:39 66.4 °F 65.5 °F 29.80 in Calm     97 % 0.00 in
06:41 66.4 °F 65.5 °F 29.80 in Calm   3.0 mph 97 % 0.00 in
06:42 66.4 °F 65.5 °F 29.80 in SE 0.7 mph 3.5 mph 97 % 0.00 in
06:46 66.4 °F 65.5 °F 29.80 in Calm   3.0 mph 97 % 0.00 in
06:48 66.4 °F 65.5 °F 29.80 in SE 0.4 mph 2.3 mph 97 % 0.00 in
06:53 66.5 °F 65.6 °F 29.80 in Calm     97 % 0.00 in
06:56 66.6 °F 65.7 °F 29.79 in SE 3.1 mph 4.6 mph 97 % 0.00 in
07:01 66.8 °F 66.2 °F 29.79 in Calm     98 % 0.00 in
07:03 66.8 °F 65.9 °F 29.79 in SE 1.4 mph 3.5 mph 97 % 0.00 in
07:06 66.9 °F 66.0 °F 29.79 in SE 0.1 mph 3.5 mph 97 % 0.00 in
07:07 66.9 °F 66.0 °F 29.79 in Calm     97 % 0.00 in
07:12 67.0 °F 66.1 °F 29.79 in Calm     97 % 0.00 in
07:16 67.1 °F 66.2 °F 29.79 in South 0.1 mph 1.2 mph 97 % 0.00 in
07:18 67.1 °F 66.2 °F 29.78 in Calm   1.2 mph 97 % 0.00 in
07:20 67.2 °F 66.6 °F 29.78 in Calm     98 % 0.00 in
07:27 67.3 °F 66.7 °F 29.78 in Calm     98 % 0.00 in
07:28 67.3 °F 66.7 °F 29.78 in South 1.1 mph 2.3 mph 98 % 0.00 in
07:29 67.4 °F 66.8 °F 29.78 in South 1.1 mph 2.3 mph 98 % 0.00 in
07:30 67.4 °F 66.8 °F 29.78 in South 0.1 mph 1.2 mph 98 % 0.00 in
07:31 67.4 °F 66.8 °F 29.78 in Calm   1.2 mph 98 % 0.00 in
07:34 67.6 °F 67.0 °F 29.78 in SE 2.1 mph 4.0 mph 98 % 0.00 in
07:39 67.8 °F 67.2 °F 29.78 in SE 2.8 mph 4.6 mph 98 % 0.00 in
07:42 67.9 °F 67.3 °F 29.78 in SSE 2.9 mph 6.9 mph 98 % 0.00 in
07:45 68.0 °F 67.4 °F 29.77 in SE 2.0 mph 7.0 mph 98 % 0.00 in
07:46 68.0 °F 67.4 °F 29.77 in SE 3.8 mph 6.9 mph 98 % 0.00 in
07:52 68.2 °F 67.6 °F 29.77 in SSE 1.6 mph 3.5 mph 98 % 0.00 in
07:53 68.2 °F 67.6 °F 29.78 in SSE 1.0 mph 3.5 mph 98 % 0.00 in
07:55 68.3 °F 67.7 °F 29.77 in SE 1.4 mph 3.5 mph 98 % 0.00 in
07:58 68.3 °F 67.7 °F 29.77 in SSE 4.2 mph 8.0 mph 98 % 0.00 in
07:59 68.4 °F 67.8 °F 29.77 in SSE 5.9 mph 6.0 mph 98 % 0.00 in
08:01 68.5 °F 67.9 °F 29.77 in SE 5.9 mph 10.4 mph 98 % 0.00 in
08:06 68.6 °F 68.0 °F 29.77 in SE 2.1 mph 6.0 mph 98 % 0.00 in
08:07 68.7 °F 68.1 °F 29.77 in SE 4.6 mph 6.9 mph 98 % 0.00 in
08:10 68.7 °F 68.1 °F 29.77 in ESE 3.8 mph 8.0 mph 98 % 0.00 in
08:12 68.8 °F 68.2 °F 29.77 in SE 3.6 mph 8.1 mph 98 % 0.00 in
08:15 68.8 °F 67.9 °F 29.77 in SE 6.6 mph 11.5 mph 97 % 0.00 in
08:18 68.9 °F 68.0 °F 29.77 in South 1.1 mph 3.5 mph 97 % 0.00 in
08:21 69.0 °F 68.1 °F 29.77 in SE 2.8 mph 3.5 mph 97 % 0.00 in
08:26 69.0 °F 68.1 °F 29.77 in SE 0.8 mph 5.8 mph 97 % 0.00 in
08:27 69.0 °F 68.1 °F 29.77 in SSE 4.0 mph 8.1 mph 97 % 0.00 in
08:28 69.1 °F 68.2 °F 29.77 in South 3.4 mph 5.8 mph 97 % 0.00 in
08:33 69.2 °F 68.3 °F 29.76 in SE 4.4 mph 9.2 mph 97 % 0.00 in
08:36 69.4 °F 68.5 °F 29.76 in SSE 4.9 mph 15.0 mph 97 % 0.00 in
08:38 69.4 °F 68.5 °F 29.76 in SE 1.1 mph 3.5 mph 97 % 0.00 in
08:39 69.4 °F 68.5 °F 29.76 in SSW 2.1 mph 5.0 mph 97 % 0.00 in
08:40 69.4 °F 68.5 °F 29.76 in SE 2.4 mph 4.6 mph 97 % 0.00 in
08:45 69.6 °F 68.4 °F 29.76 in SSE 6.4 mph 11.5 mph 96 % 0.00 in
08:49 69.8 °F 68.6 °F 29.76 in SE 4.4 mph 11.5 mph 96 % 0.00 in
08:52 69.9 °F 68.7 °F 29.76 in SE 1.6 mph 3.5 mph 96 % 0.00 in
08:57 70.0 °F 68.8 °F 29.75 in SSE 4.5 mph 13.0 mph 96 % 0.00 in
08:59 70.1 °F 68.9 °F 29.75 in East 5.5 mph 8.1 mph 96 % 0.00 in
09:03 70.2 °F 68.7 °F 29.75 in SSE 4.1 mph 10.4 mph 95 % 0.00 in
09:07 70.4 °F 68.9 °F 29.74 in SSE 6.6 mph 15.0 mph 95 % 0.00 in
09:08 70.4 °F 68.9 °F 29.74 in South 8.7 mph 12.7 mph 95 % 0.00 in
09:11 70.6 °F 68.8 °F 29.74 in SE 3.5 mph 6.0 mph 94 % 0.00 in
09:12 70.6 °F 68.8 °F 29.74 in ESE 6.3 mph 11.5 mph 94 % 0.00 in
09:13 70.7 °F 68.9 °F 29.74 in SE 7.3 mph 12.7 mph 94 % 0.00 in
09:16 70.9 °F 69.1 °F 29.74 in ESE 8.8 mph 16.1 mph 94 % 0.00 in
09:18 71.0 °F 69.2 °F 29.73 in SSE 8.3 mph 12.7 mph 94 % 0.00 in
09:22 71.3 °F 69.2 °F 29.73 in SSE 5.5 mph 8.1 mph 93 % 0.00 in
09:27 71.6 °F 69.5 °F 29.73 in SE 4.7 mph 6.9 mph 93 % 0.00 in
09:32 72.0 °F 69.5 °F 29.73 in SSE 5.5 mph 11.5 mph 92 % 0.00 in
09:35 72.2 °F 69.4 °F 29.73 in SE 3.9 mph 10.4 mph 91 % 0.00 in
09:36 72.2 °F 69.4 °F 29.73 in ESE 4.2 mph 10.4 mph 91 % 0.00 in
09:38 72.4 °F 69.6 °F 29.72 in SSE 2.8 mph 5.8 mph 91 % 0.00 in
09:43 72.8 °F 69.4 °F 29.72 in ESE 3.0 mph 11.5 mph 89 % 0.00 in
09:48 73.1 °F 69.3 °F 29.72 in SE 4.9 mph 13.8 mph 88 % 0.00 in
09:53 73.2 °F 69.1 °F 29.72 in SE 10.1 mph 16.0 mph 87 % 0.00 in
09:55 73.4 °F 69.3 °F 29.72 in SSE 8.5 mph 12.7 mph 87 % 0.00 in
09:59 73.7 °F 69.6 °F 29.72 in SSE 8.2 mph 12.7 mph 87 % 0.00 in
10:00 73.7 °F 69.2 °F 29.71 in SE 7.6 mph 11.0 mph 86 % 0.00 in
10:02 73.8 °F 69.3 °F 29.71 in SSE 9.3 mph 17.3 mph 86 % 0.00 in
10:07 73.8 °F 69.0 °F 29.71 in SSW 3.7 mph 11.5 mph 85 % 0.00 in
10:08 73.8 °F 69.0 °F 29.71 in South 10.6 mph 13.8 mph 85 % 0.00 in
10:13 73.9 °F 69.1 °F 29.71 in SE 7.6 mph 11.5 mph 85 % 0.00 in
10:19 74.0 °F 69.2 °F 29.71 in SSE 4.8 mph 5.8 mph 85 % 0.00 in
10:22 74.1 °F 69.0 °F 29.71 in SE 7.9 mph 12.7 mph 84 % 0.00 in
10:27 74.2 °F 68.3 °F 29.70 in SE 6.5 mph 19.6 mph 82 % 0.00 in
10:32 74.4 °F 68.5 °F 29.70 in SSE 5.9 mph 12.7 mph 82 % 0.00 in
10:35 74.6 °F 68.7 °F 29.71 in SSE 6.1 mph 13.8 mph 82 % 0.00 in
10:42 75.1 °F 68.9 °F 29.71 in SSE 8.9 mph 11.5 mph 81 % 0.00 in
10:43 75.2 °F 69.0 °F 29.70 in SE 9.1 mph 15.0 mph 81 % 0.00 in
10:45 75.4 °F 69.2 °F 29.70 in South 5.0 mph 14.0 mph 81 % 0.00 in
10:46 75.4 °F 69.2 °F 29.70 in SE 8.6 mph 13.8 mph 81 % 0.00 in
10:48 75.6 °F 69.0 °F 29.70 in SSE 10.9 mph 19.6 mph 80 % 0.00 in
10:53 75.8 °F 68.8 °F 29.70 in SSE 6.3 mph 12.7 mph 79 % 0.00 in
10:58 76.0 °F 69.0 °F 29.70 in SSE 5.4 mph 12.7 mph 79 % 0.00 in
11:03 76.2 °F 69.2 °F 29.70 in ESE 3.4 mph 13.8 mph 79 % 0.00 in
11:05 76.2 °F 68.8 °F 29.70 in SE 3.9 mph 10.4 mph 78 % 0.00 in
11:06 76.2 °F 68.8 °F 29.70 in SSE 5.0 mph 14.0 mph 78 % 0.00 in
11:10 76.3 °F 68.9 °F 29.70 in SSE 4.1 mph 8.1 mph 78 % 0.00 in
11:15 76.2 °F 69.2 °F 29.70 in SE 4.7 mph 10.4 mph 79 % 0.00 in
11:19 76.2 °F 69.2 °F 29.70 in SSE 2.6 mph 10.4 mph 79 % 0.00 in
11:20 76.1 °F 69.1 °F 29.70 in SE 6.2 mph 12.7 mph 79 % 0.00 in
11:25 76.2 °F 69.9 °F 29.70 in SSE 6.3 mph 10.0 mph 81 % 0.00 in
11:30 76.2 °F 69.6 °F 29.69 in South 6.5 mph 10.4 mph 80 % 0.00 in
11:34 76.2 °F 69.9 °F 29.69 in SE 5.3 mph 14.0 mph 81 % 0.00 in
11:36 76.2 °F 69.6 °F 29.69 in WSW 4.6 mph 13.8 mph 80 % 0.00 in
11:41 76.0 °F 69.4 °F 29.69 in SSE 4.1 mph 9.2 mph 80 % 0.00 in
11:46 75.9 °F 69.6 °F 29.69 in SE 3.9 mph 10.0 mph 81 % 0.00 in
11:47 75.9 °F 69.6 °F 29.68 in SSE 3.6 mph 10.0 mph 81 % 0.00 in
11:48 75.9 °F 69.6 °F 29.68 in SW 9.5 mph 19.6 mph 81 % 0.00 in
11:50 75.8 °F 69.6 °F 29.68 in SSE 7.7 mph 11.0 mph 81 % 0.00 in
11:51 75.8 °F 69.6 °F 29.68 in South 9.9 mph 12.7 mph 81 % 0.00 in
11:52 75.7 °F 69.5 °F 29.68 in SE 4.8 mph 14.0 mph 81 % 0.00 in
11:53 75.7 °F 69.5 °F 29.68 in SSE 7.2 mph 13.8 mph 81 % 0.00 in
11:56 75.6 °F 69.4 °F 29.68 in SE 1.3 mph 3.0 mph 81 % 0.00 in
11:59 75.6 °F 69.7 °F 29.68 in ESE 1.6 mph 5.0 mph 82 % 0.00 in
12:03 75.7 °F 69.5 °F 29.68 in South 6.4 mph 11.5 mph 81 % 0.00 in
12:05 75.7 °F 69.5 °F 29.68 in SSE 0.9 mph 9.2 mph 81 % 0.00 in
12:08 75.7 °F 69.8 °F 29.67 in SE 2.9 mph 5.8 mph 82 % 0.00 in
12:12 75.7 °F 69.8 °F 29.67 in ESE 2.5 mph 8.1 mph 82 % 0.00 in
12:13 75.6 °F 69.7 °F 29.67 in South 2.6 mph 4.6 mph 82 % 0.00 in
12:16 75.5 °F 69.6 °F 29.67 in SSE 3.3 mph 9.2 mph 82 % 0.00 in
12:19 75.3 °F 69.4 °F 29.67 in SE 2.0 mph 6.0 mph 82 % 0.00 in
12:22 75.2 °F 69.7 °F 29.67 in SSW 1.5 mph 5.8 mph 83 % 0.00 in
12:26 75.1 °F 69.9 °F 29.67 in SSW 0.2 mph 3.5 mph 84 % 0.00 in
12:27 75.0 °F 69.8 °F 29.67 in SSW 0.6 mph 2.0 mph 84 % 0.00 in
12:32 74.5 °F 70.0 °F 29.67 in SE 4.3 mph 9.0 mph 86 % 0.00 in
12:33 74.4 °F 70.3 °F 29.67 in SE 4.6 mph 6.9 mph 87 % 0.00 in
12:38 74.1 °F 70.6 °F 29.66 in SSE 3.7 mph 3.7 mph 89 % 0.01 in
12:39 74.0 °F 70.6 °F 29.66 in SSE 4.0 mph 11.5 mph 89 % 0.01 in
12:41 73.9 °F 70.5 °F 29.66 in SE 1.4 mph 4.6 mph 89 % 0.01 in
12:44 73.8 °F 70.7 °F 29.66 in South 2.0 mph 4.6 mph 90 % 0.01 in
12:46 73.7 °F 70.6 °F 29.66 in SSE 2.0 mph 3.5 mph 90 % 0.01 in
12:51 73.6 °F 70.8 °F 29.65 in South 2.4 mph 8.1 mph 91 % 0.01 in
12:52 73.6 °F 70.5 °F 29.65 in SE 3.3 mph 3.5 mph 90 % 0.01 in
12:54 73.5 °F 70.4 °F 29.65 in SSW 1.6 mph 5.8 mph 90 % 0.01 in
12:57 73.4 °F 70.3 °F 29.65 in ESE 1.1 mph 4.0 mph 90 % 0.01 in
12:59 73.4 °F 70.3 °F 29.65 in SSE 1.1 mph 3.5 mph 90 % 0.01 in
13:05 73.5 °F 70.7 °F 29.65 in SE 3.4 mph 6.9 mph 91 % 0.01 in
13:08 73.5 °F 70.7 °F 29.65 in WSW 1.6 mph 4.6 mph 91 % 0.01 in
13:09 73.5 °F 70.7 °F 29.64 in SW 1.7 mph 4.6 mph 91 % 0.01 in
13:10 73.5 °F 70.7 °F 29.64 in SSE 4.3 mph 8.1 mph 91 % 0.01 in
13:11 73.5 °F 70.7 °F 29.64 in SE 2.8 mph 8.1 mph 91 % 0.01 in
13:15 73.4 °F 70.6 °F 29.63 in SE 6.6 mph 10.4 mph 91 % 0.01 in
13:20 73.4 °F 70.6 °F 29.63 in SSE 3.0 mph 5.8 mph 91 % 0.01 in
13:22 73.5 °F 70.7 °F 29.63 in SE 4.5 mph 9.0 mph 91 % 0.01 in
13:24 73.5 °F 70.7 °F 29.63 in SSE 1.3 mph 5.0 mph 91 % 0.01 in
13:28 73.4 °F 70.3 °F 29.63 in SSE 2.2 mph 6.0 mph 90 % 0.01 in
13:33 73.4 °F 70.3 °F 29.62 in SSE 0.2 mph 3.5 mph 90 % 0.01 in
13:38 73.4 °F 70.3 °F 29.62 in SSE 5.8 mph 8.0 mph 90 % 0.00 in
13:42 73.3 °F 70.2 °F 29.62 in SE 3.3 mph 9.2 mph 90 % 0.00 in
13:44 73.4 °F 70.3 °F 29.62 in SSE 5.9 mph 11.5 mph 90 % 0.00 in
13:48 73.4 °F 70.3 °F 29.62 in SE 5.0 mph 8.0 mph 90 % 0.00 in
13:49 73.4 °F 70.3 °F 29.62 in SSE 5.5 mph 10.4 mph 90 % 0.00 in
13:54 73.4 °F 70.3 °F 29.61 in SSE 5.8 mph 9.2 mph 90 % 0.00 in
13:56 73.3 °F 70.2 °F 29.61 in ESE 4.4 mph 9.0 mph 90 % 0.00 in
14:01 73.2 °F 69.8 °F 29.61 in SSE 5.3 mph 15.0 mph 89 % 0.00 in
14:02 73.2 °F 69.8 °F 29.61 in SSE 7.0 mph 16.0 mph 89 % 0.00 in
14:04 73.1 °F 69.7 °F 29.60 in SSE 6.5 mph 10.4 mph 89 % 0.00 in
14:08 73.0 °F 69.9 °F 29.60 in SSE 5.2 mph 6.0 mph 90 % 0.00 in
14:13 73.0 °F 69.9 °F 29.60 in SE 1.0 mph 4.6 mph 90 % 0.00 in
14:19 73.0 °F 69.9 °F 29.59 in South 0.8 mph 3.5 mph 90 % 0.00 in
14:20 73.0 °F 69.9 °F 29.59 in SE 1.8 mph 4.6 mph 90 % 0.00 in
14:25 72.9 °F 69.8 °F 29.59 in SSE 1.5 mph 3.5 mph 90 % 0.00 in
14:28 72.9 °F 70.1 °F 29.59 in SSE 2.6 mph 9.2 mph 91 % 0.00 in
14:29 72.9 °F 70.1 °F 29.59 in WSW 1.8 mph 3.5 mph 91 % 0.00 in
14:34 72.9 °F 70.1 °F 29.59 in SSE 2.3 mph 4.6 mph 91 % 0.00 in
14:39 72.8 °F 70.0 °F 29.58 in ESE 2.6 mph 8.1 mph 91 % 0.00 in
14:42 72.8 °F 70.0 °F 29.58 in SSE 0.6 mph 5.8 mph 91 % 0.00 in
14:47 72.8 °F 70.0 °F 29.58 in SSE 0.6 mph 2.3 mph 91 % 0.00 in
14:48 72.8 °F 70.0 °F 29.58 in SSE 1.1 mph 3.5 mph 91 % 0.00 in
14:52 72.9 °F 70.1 °F 29.58 in SSE 0.7 mph 2.3 mph 91 % 0.00 in
14:53 72.9 °F 70.1 °F 29.58 in SSE 0.8 mph 2.3 mph 91 % 0.00 in
14:56 72.9 °F 70.1 °F 29.58 in Calm     91 % 0.00 in
15:04 73.0 °F 69.9 °F 29.58 in North 4.3 mph 5.8 mph 90 % 0.00 in
15:07 72.6 °F 68.5 °F 29.57 in North 1.3 mph 3.5 mph 87 % 0.00 in
15:09 72.4 °F 68.3 °F 29.57 in WNW 1.1 mph 3.5 mph 87 % 0.00 in
15:12 72.3 °F 68.2 °F 29.57 in WSW 4.0 mph 9.2 mph 87 % 0.00 in
15:13 72.2 °F 68.1 °F 29.57 in NNW 1.3 mph 2.3 mph 87 % 0.00 in
15:14 72.2 °F 68.1 °F 29.57 in NNW 1.5 mph 2.3 mph 87 % 0.00 in
15:18 72.0 °F 67.9 °F 29.56 in WNW 2.9 mph 6.0 mph 87 % 0.00 in
15:19 71.9 °F 67.8 °F 29.57 in North 1.1 mph 5.8 mph 87 % 0.00 in
15:24 71.5 °F 67.4 °F 29.56 in NW 1.6 mph 3.5 mph 87 % 0.00 in
15:26 71.3 °F 67.2 °F 29.56 in WNW 2.0 mph 7.0 mph 87 % 0.00 in
15:30 71.0 °F 67.3 °F 29.56 in West 2.8 mph 5.8 mph 88 % 0.01 in
15:32 70.8 °F 67.1 °F 29.56 in WNW 3.1 mph 4.0 mph 88 % 0.01 in
15:34 70.6 °F 66.9 °F 29.56 in WNW 3.1 mph 5.8 mph 88 % 0.01 in
15:37 70.5 °F 66.8 °F 29.55 in WNW 1.0 mph 3.5 mph 88 % 0.01 in
15:39 70.4 °F 67.0 °F 29.55 in WNW 2.2 mph 3.5 mph 89 % 0.01 in
15:43 70.2 °F 66.8 °F 29.55 in West 1.7 mph 3.5 mph 89 % 0.01 in
15:44 70.2 °F 66.8 °F 29.55 in NW 1.5 mph 4.0 mph 89 % 0.01 in
15:47 70.1 °F 67.0 °F 29.55 in NW 0.6 mph 4.6 mph 90 % 0.01 in
15:52 69.8 °F 66.7 °F 29.55 in NW 2.1 mph 3.5 mph 90 % 0.01 in
15:55 69.6 °F 66.9 °F 29.54 in NNW 0.6 mph 3.5 mph 91 % 0.01 in
15:58 69.5 °F 66.8 °F 29.55 in WNW 1.6 mph 3.5 mph 91 % 0.01 in
16:02 69.4 °F 66.7 °F 29.54 in NNW 1.4 mph 3.5 mph 91 % 0.01 in
16:03 69.4 °F 66.7 °F 29.54 in WNW 2.0 mph 5.0 mph 91 % 0.01 in
16:08 69.2 °F 66.5 °F 29.55 in NW 2.5 mph 4.6 mph 91 % 0.01 in
16:13 69.0 °F 66.3 °F 29.54 in WNW 0.7 mph 2.3 mph 91 % 0.01 in
16:14 69.0 °F 66.3 °F 29.53 in WNW 1.7 mph 3.5 mph 91 % 0.01 in
16:15 69.0 °F 66.6 °F 29.53 in NW 3.3 mph 4.6 mph 92 % 0.01 in
16:20 68.9 °F 66.5 °F 29.53 in WNW 0.6 mph 3.5 mph 92 % 0.01 in
16:24 68.8 °F 66.4 °F 29.53 in WNW 2.3 mph 4.6 mph 92 % 0.01 in
16:30 68.7 °F 66.3 °F 29.52 in WNW 1.1 mph 3.5 mph 92 % 0.00 in
16:35 68.6 °F 66.5 °F 29.52 in WNW 0.1 mph 1.2 mph 93 % 0.00 in
16:40 68.5 °F 66.4 °F 29.52 in Calm     93 % 0.00 in
16:42 68.5 °F 66.4 °F 29.52 in Calm     93 % 0.00 in
16:48 68.5 °F 66.4 °F 29.51 in WNW 0.6 mph 2.3 mph 93 % 0.00 in
16:53 68.4 °F 66.3 °F 29.51 in Calm     93 % 0.00 in
16:56 68.4 °F 66.3 °F 29.51 in Calm   1.2 mph 93 % 0.00 in
17:01 68.4 °F 66.3 °F 29.51 in Calm     93 % 0.00 in
17:06 68.4 °F 66.3 °F 29.51 in WNW 0.2 mph 1.2 mph 93 % 0.00 in
17:09 68.4 °F 66.3 °F 29.50 in Calm     93 % 0.00 in
17:14 68.4 °F 66.3 °F 29.50 in Calm   1.2 mph 93 % 0.00 in
17:15 68.4 °F 66.3 °F 29.50 in WNW 0.1 mph 1.2 mph 93 % 0.00 in
17:20 68.3 °F 66.2 °F 29.50 in WNW 0.5 mph 2.3 mph 93 % 0.00 in
17:23 68.3 °F 66.2 °F 29.49 in NNW 1.4 mph 3.5 mph 93 % 0.00 in
17:24 68.3 °F 66.2 °F 29.49 in NE 2.2 mph 3.5 mph 93 % 0.00 in
17:29 68.2 °F 66.1 °F 29.48 in NE 1.9 mph 3.5 mph 93 % 0.00 in
17:34 68.1 °F 66.0 °F 29.48 in NE 0.3 mph 1.2 mph 93 % 0.00 in
17:39 68.1 °F 66.0 °F 29.48 in NE 0.2 mph 1.2 mph 93 % 0.00 in
17:44 68.0 °F 66.2 °F 29.47 in Calm   1.2 mph 94 % 0.00 in
17:49 67.9 °F 65.8 °F 29.47 in Calm     93 % 0.00 in
17:54 67.8 °F 65.7 °F 29.47 in Calm     93 % 0.00 in
18:05 67.7 °F 65.9 °F 29.47 in Calm     94 % 0.00 in
18:10 67.6 °F 65.8 °F 29.47 in Calm     94 % 0.00 in
18:15 67.5 °F 65.7 °F 29.46 in Calm     94 % 0.00 in
18:20 67.5 °F 65.7 °F 29.46 in NE 0.1 mph 1.2 mph 94 % 0.00 in
18:25 67.4 °F 65.6 °F 29.46 in Calm     94 % 0.00 in
18:30 67.4 °F 65.6 °F 29.46 in Calm     94 % 0.00 in
18:35 67.3 °F 65.5 °F 29.46 in Calm     94 % 0.00 in
18:40 67.3 °F 65.5 °F 29.46 in Calm     94 % 0.00 in
18:46 67.2 °F 65.4 °F 29.46 in Calm     94 % 0.00 in
18:51 67.1 °F 65.3 °F 29.46 in Calm     94 % 0.00 in
18:55 67.1 °F 65.3 °F 29.46 in Calm     94 % 0.00 in
19:00 66.9 °F 65.1 °F 29.46 in Calm     94 % 0.00 in
19:04 66.9 °F 65.1 °F 29.46 in Calm     94 % 0.00 in
19:09 66.8 °F 65.0 °F 29.46 in Calm     94 % 0.00 in
19:14 66.7 °F 64.9 °F 29.46 in NE 0.3 mph 1.2 mph 94 % 0.00 in
19:19 66.6 °F 64.5 °F 29.46 in Calm     93 % 0.00 in
19:24 66.5 °F 64.4 °F 29.46 in Calm     93 % 0.00 in
19:29 66.4 °F 64.3 °F 29.46 in Calm     93 % 0.00 in
19:34 66.3 °F 64.5 °F 29.46 in Calm     94 % 0.00 in
19:40 66.4 °F 64.6 °F 29.46 in NE 0.1 mph 1.2 mph 94 % 0.00 in
19:44 66.3 °F 64.5 °F 29.46 in Calm   1.2 mph 94 % 0.00 in
19:49 66.4 °F 64.6 °F 29.46 in NE 0.6 mph 2.3 mph 94 % 0.00 in
19:54 66.4 °F 64.9 °F 29.46 in West 0.1 mph 1.2 mph 95 % 0.00 in
19:59 66.5 °F 65.0 °F 29.45 in Calm     95 % 0.00 in
20:04 66.5 °F 65.0 °F 29.45 in West 0.1 mph 1.2 mph 95 % 0.00 in
20:15 66.5 °F 65.0 °F 29.45 in West 0.2 mph 1.2 mph 95 % 0.00 in
20:20 66.6 °F 65.1 °F 29.45 in West 0.2 mph 1.0 mph 95 % 0.00 in
20:25 66.5 °F 65.0 °F 29.45 in West 0.6 mph 2.3 mph 95 % 0.00 in
20:30 66.5 °F 65.0 °F 29.44 in Calm     95 % 0.00 in
20:35 66.5 °F 65.0 °F 29.44 in Calm     95 % 0.00 in
20:40 66.6 °F 65.1 °F 29.44 in Calm     95 % 0.00 in
20:45 66.6 °F 65.1 °F 29.43 in Calm     95 % 0.00 in
20:50 66.6 °F 65.1 °F 29.44 in West 0.4 mph 1.2 mph 95 % 0.00 in
20:55 66.6 °F 65.1 °F 29.44 in Calm     95 % 0.00 in
21:00 66.5 °F 65.0 °F 29.44 in Calm     95 % 0.00 in
21:06 66.5 °F 65.3 °F 29.43 in Calm     96 % 0.00 in
21:11 66.5 °F 65.3 °F 29.43 in Calm     96 % 0.00 in
21:17 66.5 °F 65.3 °F 29.43 in Calm     96 % 0.00 in
21:22 66.4 °F 64.9 °F 29.43 in Calm     95 % 0.00 in
21:27 66.3 °F 64.8 °F 29.42 in Calm     95 % 0.00 in
21:32 66.3 °F 64.8 °F 29.43 in Calm     95 % 0.00 in
21:34 66.2 °F 64.7 °F 29.42 in Calm     95 % 0.00 in
21:39 66.2 °F 64.7 °F 29.42 in Calm     95 % 0.00 in
21:44 66.1 °F 64.6 °F 29.42 in West 0.2 mph 1.2 mph 95 % 0.00 in
21:49 66.1 °F 64.6 °F 29.42 in Calm   1.2 mph 95 % 0.00 in
21:54 66.0 °F 64.5 °F 29.42 in West 1.0 mph 2.3 mph 95 % 0.00 in
21:59 66.1 °F 64.6 °F 29.42 in West 0.7 mph 2.3 mph 95 % 0.00 in
22:05 66.1 °F 64.9 °F 29.41 in Calm     96 % 0.00 in
22:10 66.0 °F 64.8 °F 29.41 in Calm     96 % 0.00 in
22:15 66.0 °F 64.8 °F 29.41 in West 0.1 mph   96 % 0.00 in
22:20 65.9 °F 64.4 °F 29.41 in Calm     95 % 0.00 in
22:26 65.8 °F 64.3 °F 29.41 in Calm     95 % 0.00 in
22:31 65.7 °F 64.2 °F 29.40 in Calm     95 % 0.00 in
22:36 65.6 °F 64.1 °F 29.40 in Calm     95 % 0.00 in
22:41 65.4 °F 63.9 °F 29.40 in Calm     95 % 0.00 in
22:43 65.4 °F 63.9 °F 29.40 in Calm     95 % 0.00 in
22:48 65.2 °F 63.7 °F 29.40 in Calm     95 % 0.00 in
22:53 65.2 °F 63.7 °F 29.40 in Calm     95 % 0.00 in
22:58 65.1 °F 63.6 °F 29.40 in Calm     95 % 0.00 in
23:03 65.0 °F 63.5 °F 29.39 in Calm     95 % 0.00 in
23:08 64.9 °F 63.4 °F 29.39 in Calm     95 % 0.00 in
23:13 64.8 °F 63.3 °F 29.39 in Calm     95 % 0.00 in
23:18 64.7 °F 63.2 °F 29.38 in Calm     95 % 0.00 in
23:23 64.6 °F 63.1 °F 29.38 in Calm     95 % 0.00 in
23:28 64.5 °F 63.0 °F 29.38 in Calm     95 % 0.00 in
23:33 64.3 °F 62.8 °F 29.38 in Calm     95 % 0.00 in
23:39 64.2 °F 62.7 °F 29.38 in Calm     95 % 0.00 in
23:44 64.1 °F 62.6 °F 29.37 in Calm     95 % 0.00 in
23:49 64.1 °F 62.6 °F 29.37 in Calm     95 % 0.00 in
23:54 64.0 °F 62.5 °F 29.37 in Calm     95 % 0.00 in
23:59 64.0 °F 62.5 °F 29.36 in Calm     95 % 0.00 in
Crab Meadow Weather
Compliments of Weather Underground - 3.75 mb

Script developed by  Jim McMurry - jmcmurry@mwt.net Adapted for the template by  Wim van der Kuil - Leuven-Template.eu

Astronomy: Neptune was discovered in 1846 (over 150 years ago). Since that time it has still yet to make a complete orbit around the sun, because one Neptune year lasts 165 Earth years!